Time;durP1;ratioP1;P1;durP2;ratioP2;P2;SDS_P1;SDS_P2;PMS_P1;PMS_P2;Temp;Humidity;BMP_temperature;BMP_pressure;BME280_temperature;BME280_humidity;BME280_pressure;Samples;Min_cycle;Max_cycle;Signal;HPM_P1;HPM_P2
2021/08/09 00:00:38;;;;;;;1.93;1.60;;;18.10;1.00;;;;;;5085425;28;20256;-60
2021/08/09 00:03:04;;;;;;;2.10;1.70;;;18.10;1.00;;;;;;5087687;28;20578;-59
2021/08/09 00:05:30;;;;;;;1.97;1.70;;;18.10;1.00;;;;;;5075317;28;20522;-60
2021/08/09 00:07:56;;;;;;;2.30;1.63;;;17.90;1.00;;;;;;5074604;28;20416;-59
2021/08/09 00:10:21;;;;;;;1.80;1.70;;;18.10;1.00;;;;;;5070395;28;20204;-60
2021/08/09 00:12:47;;;;;;;1.70;1.60;;;18.00;1.00;;;;;;5071584;28;20178;-60
2021/08/09 00:15:13;;;;;;;4.07;1.80;;;18.00;1.00;;;;;;5071040;28;20274;-60
2021/08/09 00:17:38;;;;;;;3.60;1.70;;;18.00;1.00;;;;;;5067478;28;20691;-58
2021/08/09 00:20:06;;;;;;;2.40;1.73;;;17.90;1.00;;;;;;5071375;28;20241;-60
2021/08/09 00:22:32;;;;;;;4.03;1.60;;;18.00;1.00;;;;;;5071398;28;20208;-60
2021/08/09 00:24:57;;;;;;;2.37;2.00;;;18.00;1.00;;;;;;5078094;28;20457;-61
2021/08/09 00:27:23;;;;;;;2.90;1.80;;;18.00;1.00;;;;;;5070904;28;20181;-60
2021/08/09 00:29:49;;;;;;;2.10;1.70;;;17.90;1.00;;;;;;5090922;28;20244;-58
2021/08/09 00:32:14;;;;;;;2.27;1.63;;;18.00;1.00;;;;;;5070100;28;20196;-59
2021/08/09 00:34:40;;;;;;;2.60;1.40;;;18.10;1.00;;;;;;5077353;28;20179;-59
2021/08/09 00:37:05;;;;;;;2.63;1.70;;;18.00;1.00;;;;;;5070082;28;20179;-59
2021/08/09 00:39:31;;;;;;;1.80;1.70;;;17.90;1.00;;;;;;5071079;28;20521;-60
2021/08/09 00:41:57;;;;;;;2.70;2.17;;;17.90;1.00;;;;;;5068775;28;20747;-60
2021/08/09 00:44:22;;;;;;;1.80;1.67;;;18.00;1.00;;;;;;5071140;28;20179;-59
2021/08/09 00:46:48;;;;;;;1.53;1.40;;;18.00;1.00;;;;;;5070488;28;20191;-60
2021/08/09 00:49:13;;;;;;;1.93;1.40;;;18.00;1.00;;;;;;5071464;28;20199;-60
2021/08/09 00:51:39;;;;;;;3.90;1.87;;;17.90;1.00;;;;;;5067466;28;20203;-60
2021/08/09 00:54:04;;;;;;;2.17;1.60;;;18.10;1.00;;;;;;5051281;28;20184;-60
2021/08/09 00:56:30;;;;;;;1.53;1.40;;;18.10;1.00;;;;;;5068272;28;20179;-59
2021/08/09 00:58:57;;;;;;;1.77;1.33;;;18.20;1.00;;;;;;5064269;28;20692;-59
2021/08/09 01:01:23;;;;;;;2.30;1.30;;;18.00;1.00;;;;;;5047511;28;20188;-58
2021/08/09 01:03:48;;;;;;;2.50;1.43;;;18.10;1.00;;;;;;5070959;28;20444;-60
2021/08/09 01:06:15;;;;;;;2.20;1.60;;;18.00;1.00;;;;;;5070357;28;20191;-60
2021/08/09 01:08:58;;;;;;;2.53;1.77;;;17.90;1.00;;;;;;5069775;28;20199;-60
2021/08/09 01:11:42;;;;;;;1.60;1.30;;;17.90;1.00;;;;;;5070506;28;20988;-58
2021/08/09 01:14:13;;;;;;;1.53;1.37;;;17.80;1.00;;;;;;5069691;28;20431;-59
2021/08/09 01:16:40;;;;;;;2.43;1.53;;;17.80;1.00;;;;;;5073676;28;21004;-59
2021/08/09 01:19:29;;;;;;;2.90;1.87;;;17.80;1.00;;;;;;5066417;28;21361;-59
2021/08/09 01:22:06;;;;;;;1.53;1.43;;;17.80;1.00;;;;;;5094287;28;20440;-59
2021/08/09 01:24:38;;;;;;;4.60;1.30;;;17.70;1.00;;;;;;5083785;28;20528;-60
2021/08/09 01:27:30;;;;;;;4.03;1.50;;;17.70;1.00;;;;;;5076296;28;20438;-59
2021/08/09 01:29:59;;;;;;;1.70;1.13;;;17.70;1.00;;;;;;5073160;28;20966;-60
2021/08/09 01:32:26;;;;;;;1.53;1.33;;;17.60;1.00;;;;;;5074515;28;20528;-59
2021/08/09 01:34:54;;;;;;;2.50;1.60;;;17.60;1.00;;;;;;5081529;28;20452;-58
2021/08/09 01:37:21;;;;;;;2.20;1.83;;;17.70;1.00;;;;;;5094604;28;20449;-59
2021/08/09 01:39:48;;;;;;;1.53;1.43;;;17.70;1.00;;;;;;5079317;28;20531;-60
2021/08/09 01:42:16;;;;;;;1.37;1.27;;;17.70;1.00;;;;;;5058684;28;20449;-61
2021/08/09 01:44:41;;;;;;;1.60;1.50;;;17.60;1.00;;;;;;5074791;28;20447;-60
2021/08/09 01:47:07;;;;;;;3.70;1.60;;;17.50;1.00;;;;;;5073713;28;20469;-59
2021/08/09 01:49:33;;;;;;;1.70;1.50;;;17.60;1.00;;;;;;5073599;28;20202;-60
2021/08/09 01:52:03;;;;;;;2.50;2.00;;;17.50;1.00;;;;;;5073132;28;20645;-59
2021/08/09 01:54:28;;;;;;;2.70;1.40;;;17.40;1.00;;;;;;5074272;28;20172;-59
2021/08/09 01:56:54;;;;;;;3.83;1.70;;;17.30;1.00;;;;;;5072448;28;20821;-59
2021/08/09 01:59:23;;;;;;;2.00;1.40;;;17.20;1.00;;;;;;5071107;28;20795;-59
2021/08/09 02:01:49;;;;;;;1.80;1.23;;;17.10;1.00;;;;;;5070211;28;20192;-59
2021/08/09 02:04:15;;;;;;;1.70;1.50;;;17.10;1.00;;;;;;5071798;28;20440;-58
2021/08/09 02:06:42;;;;;;;1.60;0.93;;;17.00;1.00;;;;;;5072440;28;20400;-60
2021/08/09 02:09:08;;;;;;;2.90;1.83;;;17.00;1.00;;;;;;5073187;28;20775;-58
2021/08/09 02:11:44;;;;;;;1.50;1.40;;;16.90;1.00;;;;;;5081724;28;20534;-59
2021/08/09 02:14:13;;;;;;;2.30;1.43;;;16.90;1.00;;;;;;5072802;28;20653;-60
2021/08/09 02:16:59;;;;;;;2.10;1.80;;;16.80;1.00;;;;;;5070307;28;20445;-59
2021/08/09 02:19:36;;;;;;;1.93;1.53;;;16.80;1.00;;;;;;5072690;28;20441;-58
2021/08/09 02:22:02;;;;;;;2.50;1.33;;;;;;;;;;5074294;28;20436;-60
2021/08/09 02:24:33;;;;;;;3.30;1.70;;;16.90;1.00;;;;;;5073449;28;22127;-60
2021/08/09 02:27:04;;;;;;;2.30;1.50;;;16.90;1.00;;;;;;5072131;28;20446;-59
2021/08/09 02:29:32;;;;;;;3.73;1.80;;;16.80;1.00;;;;;;5072018;28;20492;-59
2021/08/09 02:32:00;;;;;;;2.90;1.67;;;16.80;1.00;;;;;;5068194;28;20478;-59
2021/08/09 02:34:29;;;;;;;3.37;1.63;;;16.90;1.00;;;;;;5076065;28;20417;-59
2021/08/09 02:36:55;;;;;;;1.33;1.23;;;16.90;1.00;;;;;;5086006;28;20937;-58
2021/08/09 02:39:22;;;;;;;2.80;1.37;;;16.90;1.00;;;;;;5072923;28;20441;-60
2021/08/09 02:41:48;;;;;;;1.80;1.40;;;16.90;1.00;;;;;;5072708;28;20437;-60
2021/08/09 02:44:14;;;;;;;1.70;1.40;;;16.80;1.00;;;;;;5072935;28;20503;-58
2021/08/09 02:46:41;;;;;;;1.53;1.43;;;16.80;1.00;;;;;;5054346;28;20446;-58
2021/08/09 02:49:09;;;;;;;3.20;1.67;;;16.80;1.00;;;;;;5085549;28;20445;-59
2021/08/09 02:51:36;;;;;;;2.93;1.70;;;16.80;1.00;;;;;;5071579;28;20504;-58
2021/08/09 02:54:03;;;;;;;3.10;1.57;;;16.70;1.00;;;;;;5071418;28;20430;-60
2021/08/09 02:56:30;;;;;;;1.83;1.37;;;16.70;1.00;;;;;;5075197;28;20404;-58
2021/08/09 02:58:56;;;;;;;4.57;1.73;;;16.70;1.00;;;;;;5077271;28;20488;-59
2021/08/09 03:01:25;;;;;;;1.70;1.60;;;16.70;1.00;;;;;;5071050;28;20441;-58
2021/08/09 03:03:54;;;;;;;4.30;1.50;;;16.70;1.00;;;;;;5072581;28;20430;-59
2021/08/09 03:06:20;;;;;;;3.83;1.43;;;16.60;1.00;;;;;;5068346;28;20416;-59
2021/08/09 03:08:46;;;;;;;2.73;1.70;;;16.60;1.00;;;;;;5058573;28;21936;-60
2021/08/09 03:11:13;;;;;;;1.70;1.50;;;16.60;1.00;;;;;;5077611;28;20557;-60
2021/08/09 03:13:48;;;;;;;2.00;1.40;;;16.60;1.00;;;;;;5072247;28;20895;-59
2021/08/09 03:16:14;;;;;;;2.77;1.70;;;16.50;1.00;;;;;;5053600;28;20491;-59
2021/08/09 03:18:39;;;;;;;3.30;1.70;;;16.60;1.00;;;;;;5069872;28;20437;-60
2021/08/09 03:21:06;;;;;;;1.87;1.50;;;16.50;1.00;;;;;;5076365;28;20449;-59
2021/08/09 03:23:32;;;;;;;2.03;1.53;;;16.50;1.00;;;;;;5071484;28;20195;-60
2021/08/09 03:25:58;;;;;;;2.03;1.83;;;16.50;1.00;;;;;;5067412;28;20441;-61
2021/08/09 03:28:23;;;;;;;4.17;1.50;;;16.50;1.00;;;;;;5072136;28;20433;-59
2021/08/09 03:30:49;;;;;;;1.70;1.60;;;16.50;1.00;;;;;;5052343;28;20233;-60
2021/08/09 03:33:14;;;;;;;3.53;1.30;;;16.50;1.00;;;;;;5071465;28;20283;-59
2021/08/09 03:35:40;;;;;;;1.63;1.50;;;16.50;1.00;;;;;;5071542;28;20180;-58
2021/08/09 03:38:06;;;;;;;2.17;1.47;;;16.50;1.00;;;;;;5072024;28;20562;-61
2021/08/09 03:40:31;;;;;;;2.63;1.53;;;16.50;1.00;;;;;;5071382;28;20229;-59
2021/08/09 03:42:57;;;;;;;1.77;1.63;;;16.60;1.00;;;;;;5070287;28;20230;-60
2021/08/09 03:45:22;;;;;;;3.50;1.30;;;16.60;1.00;;;;;;5070908;28;20222;-60
2021/08/09 03:47:48;;;;;;;1.60;1.50;;;16.70;1.00;;;;;;5071954;28;20227;-59
2021/08/09 03:50:14;;;;;;;2.23;1.50;;;16.70;1.00;;;;;;5071688;28;20203;-59
2021/08/09 03:52:53;;;;;;;1.90;1.30;;;16.70;1.00;;;;;;5084216;28;20236;-59
2021/08/09 03:55:20;;;;;;;1.97;1.50;;;16.80;1.00;;;;;;5070026;28;20243;-59
2021/08/09 03:57:46;;;;;;;1.93;1.50;;;16.80;1.00;;;;;;5075975;28;20492;-59
2021/08/09 04:00:13;;;;;;;3.60;1.87;;;16.80;1.00;;;;;;5071357;28;20475;-59
2021/08/09 04:02:38;;;;;;;2.40;1.97;;;16.80;1.00;;;;;;5070919;28;20190;-59
2021/08/09 04:05:06;;;;;;;3.90;1.90;;;16.80;1.00;;;;;;5070686;28;20449;-58
2021/08/09 04:07:32;;;;;;;2.33;1.67;;;16.80;1.00;;;;;;5071427;28;20183;-59
2021/08/09 04:09:58;;;;;;;2.23;1.80;;;16.80;1.00;;;;;;5071129;28;20958;-59
2021/08/09 04:12:23;;;;;;;5.10;1.53;;;16.80;1.00;;;;;;5069892;28;20216;-59
2021/08/09 04:14:49;;;;;;;4.90;1.90;;;16.70;1.00;;;;;;5069993;28;20201;-60
2021/08/09 04:17:15;;;;;;;1.77;1.60;;;16.70;1.00;;;;;;5070876;28;20712;-60
2021/08/09 04:19:40;;;;;;;4.30;1.97;;;16.70;1.00;;;;;;5069345;28;20624;-60
2021/08/09 04:22:06;;;;;;;2.40;1.73;;;16.80;1.00;;;;;;5070579;28;20482;-57
2021/08/09 04:24:33;;;;;;;1.60;1.47;;;16.80;1.00;;;;;;5050561;28;20229;-58
2021/08/09 04:26:59;;;;;;;1.67;1.30;;;16.80;1.00;;;;;;5074685;28;20274;-59
2021/08/09 04:29:26;;;;;;;3.60;2.07;;;16.80;1.00;;;;;;5067795;28;20544;-58
2021/08/09 04:31:51;;;;;;;3.00;1.40;;;16.90;1.00;;;;;;5068408;28;20839;-60
2021/08/09 04:34:17;;;;;;;2.20;1.67;;;16.90;1.00;;;;;;5070769;28;20525;-58
2021/08/09 04:36:42;;;;;;;4.73;1.83;;;16.90;1.00;;;;;;5053077;28;20262;-59
2021/08/09 04:39:08;;;;;;;2.83;2.20;;;17.10;1.00;;;;;;5070757;28;20179;-59
2021/08/09 04:41:33;;;;;;;5.90;1.73;;;17.10;1.00;;;;;;5071225;28;20245;-59
2021/08/09 04:43:59;;;;;;;3.17;1.67;;;17.10;1.00;;;;;;5071090;28;20171;-59
2021/08/09 04:46:25;;;;;;;2.47;1.57;;;17.20;1.00;;;;;;5081042;28;20197;-58
2021/08/09 04:48:50;;;;;;;3.80;1.73;;;17.20;1.00;;;;;;5070209;28;20230;-60
2021/08/09 04:51:16;;;;;;;3.00;1.50;;;17.30;1.00;;;;;;5072972;28;20219;-59
2021/08/09 04:53:43;;;;;;;1.77;1.43;;;17.30;1.00;;;;;;5077243;28;20187;-58
2021/08/09 04:56:08;;;;;;;2.23;2.00;;;17.40;1.00;;;;;;5079043;28;20183;-60
2021/08/09 04:58:34;;;;;;;2.17;1.60;;;17.40;1.00;;;;;;5074660;28;20449;-60
2021/08/09 05:00:59;;;;;;;2.00;1.80;;;17.50;1.00;;;;;;5074666;28;20183;-58
2021/08/09 05:03:26;;;;;;;2.70;1.77;;;17.60;1.00;;;;;;5074530;28;20187;-58
2021/08/09 05:05:51;;;;;;;2.13;1.93;;;17.60;1.00;;;;;;5074768;28;20186;-58
2021/08/09 05:08:17;;;;;;;3.67;1.90;;;17.70;1.00;;;;;;5083112;28;20435;-58
2021/08/09 05:10:42;;;;;;;3.13;2.33;;;17.70;1.00;;;;;;5056767;28;20290;-56
2021/08/09 05:13:08;;;;;;;1.70;1.60;;;17.80;1.00;;;;;;5074771;28;20181;-57
2021/08/09 05:15:35;;;;;;;4.17;1.90;;;17.90;1.00;;;;;;5072622;28;20183;-56
2021/08/09 05:18:01;;;;;;;3.90;1.80;;;18.00;1.00;;;;;;5072832;28;20210;-57
2021/08/09 05:20:27;;;;;;;2.50;2.30;;;18.00;1.00;;;;;;5069808;28;20528;-56
2021/08/09 05:22:52;;;;;;;2.97;1.60;;;18.10;1.00;;;;;;5072811;28;20247;-57
2021/08/09 05:25:21;;;;;;;3.83;2.30;;;18.20;1.00;;;;;;5075357;28;20537;-57
2021/08/09 05:27:47;;;;;;;1.87;1.57;;;19.90;1.00;;;;;;5073700;28;20241;-58
2021/08/09 05:30:12;;;;;;;2.53;1.73;;;18.40;1.00;;;;;;5073352;28;20461;-56
2021/08/09 05:32:38;;;;;;;1.70;1.57;;;18.60;1.00;;;;;;5072649;28;20191;-58
2021/08/09 05:35:06;;;;;;;4.10;1.60;;;18.60;1.00;;;;;;5074118;28;20229;-57
2021/08/09 05:37:34;;;;;;;2.60;1.63;;;;;;;;;;5073641;28;20432;-57
2021/08/09 05:40:00;;;;;;;2.27;1.80;;;18.80;1.00;;;;;;5073368;28;20447;-58
2021/08/09 05:42:25;;;;;;;1.60;1.50;;;18.80;1.00;;;;;;5073967;28;20807;-57
2021/08/09 05:44:51;;;;;;;2.10;1.60;;;19.00;1.00;;;;;;5073953;28;20183;-57
2021/08/09 05:47:16;;;;;;;2.90;2.10;;;19.20;1.00;;;;;;5073299;28;20231;-57
2021/08/09 05:49:42;;;;;;;2.30;1.70;;;19.30;1.00;;;;;;5072759;28;20214;-58
2021/08/09 05:52:08;;;;;;;1.70;1.60;;;19.30;1.00;;;;;;5073712;28;20179;-57
2021/08/09 05:54:33;;;;;;;2.60;1.50;;;19.40;1.00;;;;;;5073679;28;20233;-57
2021/08/09 05:56:59;;;;;;;1.50;1.40;;;19.50;1.00;;;;;;5073607;28;20270;-58
2021/08/09 05:59:24;;;;;;;3.13;1.60;;;19.60;1.00;;;;;;5072947;28;20187;-56
2021/08/09 06:01:50;;;;;;;2.30;1.60;;;19.70;1.00;;;;;;5071411;28;20187;-58
2021/08/09 06:04:15;;;;;;;1.77;1.47;;;19.80;1.00;;;;;;5073343;28;20199;-59
2021/08/09 06:06:42;;;;;;;2.93;1.70;;;19.90;1.00;;;;;;5072837;28;20210;-58
2021/08/09 06:09:07;;;;;;;2.23;1.80;;;20.00;1.00;;;;;;5072944;28;20608;-58
2021/08/09 06:11:33;;;;;;;7.77;2.00;;;20.10;1.00;;;;;;5073381;28;20464;-57
2021/08/09 06:13:58;;;;;;;4.33;1.60;;;20.20;1.00;;;;;;5073202;28;20751;-56
2021/08/09 06:16:25;;;;;;;3.97;1.90;;;20.30;1.00;;;;;;5072948;28;20648;-57
2021/08/09 06:18:51;;;;;;;2.07;1.63;;;20.50;1.00;;;;;;5069939;28;20258;-56
2021/08/09 06:21:16;;;;;;;2.90;1.60;;;20.60;1.00;;;;;;5073170;28;20546;-59
2021/08/09 06:23:42;;;;;;;2.30;1.50;;;20.70;1.00;;;;;;5073170;28;20529;-57
2021/08/09 06:26:08;;;;;;;1.90;1.50;;;20.70;1.00;;;;;;5072587;28;20265;-58
2021/08/09 06:28:35;;;;;;;3.50;2.17;;;20.70;1.00;;;;;;5073235;28;20174;-58
2021/08/09 06:31:01;;;;;;;2.00;1.60;;;20.90;1.00;;;;;;5072200;28;20195;-57
2021/08/09 06:33:26;;;;;;;2.57;1.50;;;21.10;1.00;;;;;;5079054;28;20861;-57
2021/08/09 06:35:52;;;;;;;1.67;1.50;;;21.30;1.00;;;;;;5083393;28;20179;-58
2021/08/09 06:38:17;;;;;;;4.50;2.20;;;21.40;1.00;;;;;;5072772;28;20187;-57
2021/08/09 06:40:44;;;;;;;2.57;1.60;;;21.40;1.00;;;;;;5073257;28;20183;-58
2021/08/09 06:43:11;;;;;;;2.27;1.77;;;21.50;1.00;;;;;;5072125;28;20262;-59
2021/08/09 06:45:41;;;;;;;5.57;2.40;;;21.40;1.00;;;;;;5072772;28;20870;-57
2021/08/09 06:48:06;;;;;;;2.33;1.80;;;21.60;1.00;;;;;;5071411;28;20473;-58
2021/08/09 06:50:32;;;;;;;3.97;1.50;;;21.90;1.00;;;;;;5072388;28;20468;-58
2021/08/09 06:52:57;;;;;;;2.03;1.77;;;22.10;1.00;;;;;;5072099;28;20180;-57
2021/08/09 06:55:23;;;;;;;3.60;1.90;;;22.10;1.00;;;;;;5072035;28;20191;-59
2021/08/09 06:57:48;;;;;;;3.47;2.10;;;22.30;1.00;;;;;;5072481;28;20271;-57
2021/08/09 07:00:14;;;;;;;2.20;1.97;;;22.60;1.00;;;;;;5071950;28;20183;-59
2021/08/09 07:02:40;;;;;;;3.80;1.77;;;22.70;1.00;;;;;;5072175;28;20645;-58
2021/08/09 07:05:06;;;;;;;3.87;1.73;;;22.80;1.00;;;;;;5071811;28;20648;-58
2021/08/09 07:07:31;;;;;;;6.27;2.30;;;22.90;1.00;;;;;;5053964;28;20683;-60
2021/08/09 07:09:58;;;;;;;4.50;2.07;;;22.90;1.00;;;;;;5071633;28;20271;-58
2021/08/09 07:12:24;;;;;;;3.00;1.53;;;22.80;1.00;;;;;;5071251;28;20175;-58
2021/08/09 07:14:49;;;;;;;2.63;1.57;;;22.80;1.00;;;;;;5073441;28;20970;-59
2021/08/09 07:17:15;;;;;;;1.70;1.60;;;22.60;1.00;;;;;;5065035;28;20187;-58
2021/08/09 07:19:40;;;;;;;4.03;1.50;;;22.40;1.00;;;;;;5072077;28;20244;-58
2021/08/09 07:22:06;;;;;;;3.10;1.90;;;22.30;1.00;;;;;;5071965;28;20597;-58
2021/08/09 07:24:31;;;;;;;3.70;1.63;;;22.10;1.00;;;;;;5071527;28;20247;-58
2021/08/09 07:26:57;;;;;;;1.70;1.50;;;21.90;1.00;;;;;;5072161;28;20171;-58
2021/08/09 07:29:23;;;;;;;2.50;1.70;;;21.60;1.00;;;;;;5071980;28;20187;-58
2021/08/09 07:31:48;;;;;;;3.47;1.40;;;21.50;1.00;;;;;;5070964;28;20214;-57
2021/08/09 07:34:14;;;;;;;2.23;1.40;;;21.50;1.00;;;;;;5071927;28;20187;-57
2021/08/09 07:36:40;;;;;;;2.90;1.87;;;21.40;1.00;;;;;;5072362;28;20177;-58
2021/08/09 07:39:06;;;;;;;4.47;1.80;;;21.50;1.00;;;;;;5080085;28;20678;-57
2021/08/09 07:41:32;;;;;;;2.37;1.90;;;21.60;1.00;;;;;;5076320;28;20449;-59
2021/08/09 07:43:58;;;;;;;3.63;2.13;;;21.80;1.00;;;;;;5071614;28;20413;-58
2021/08/09 07:46:24;;;;;;;3.23;2.10;;;22.20;1.00;;;;;;5053047;28;20278;-58
2021/08/09 07:52:16;;;;;;;3.57;1.83;;;23.10;1.00;;;;;;5016817;28;20485;-58
2021/08/09 07:54:43;;;;;;;2.27;1.63;;;23.40;1.00;;;;;;5071446;28;20450;-58
2021/08/09 08:17:23;;;;;;;1.93;1.10;;;24.30;1.00;;;;;;4828126;27;8139116;-53
2021/08/09 08:19:49;;;;;;;1.13;0.87;;;24.70;1.00;;;;;;5098172;28;20265;-55
2021/08/09 08:22:15;;;;;;;1.47;1.00;;;24.50;1.00;;;;;;5108591;28;20442;-53
2021/08/09 08:24:40;;;;;;;1.47;1.10;;;24.30;1.00;;;;;;5101403;28;20528;-54
2021/08/09 08:27:06;;;;;;;2.50;1.30;;;24.10;1.00;;;;;;5107218;28;20202;-54
2021/08/09 08:29:31;;;;;;;3.53;1.83;;;24.10;1.00;;;;;;5108746;28;20178;-54
2021/08/09 08:31:57;;;;;;;2.40;1.20;;;24.30;1.00;;;;;;5108218;28;20181;-54
2021/08/09 08:34:22;;;;;;;2.07;1.07;;;24.50;1.00;;;;;;5108428;28;20206;-55
2021/08/09 08:36:48;;;;;;;2.60;1.33;;;24.70;1.00;;;;;;5102650;28;20249;-53
2021/08/09 08:39:13;;;;;;;1.90;1.30;;;24.80;1.00;;;;;;5090227;28;20648;-53
2021/08/09 08:41:43;;;;;;;1.47;1.20;;;24.90;1.00;;;;;;5108246;28;20174;-54
2021/08/09 08:44:08;;;;;;;2.03;1.37;;;25.20;1.00;;;;;;5106231;28;20597;-56
2021/08/09 08:46:38;;;;;;;1.57;1.17;;;25.30;1.00;;;;;;5103195;28;20455;-54
2021/08/09 08:49:05;;;;;;;1.57;1.20;;;25.40;1.00;;;;;;5108074;28;20189;-53
2021/08/09 08:51:32;;;;;;;3.40;1.43;;;25.60;1.00;;;;;;5107899;28;20439;-53
2021/08/09 08:53:57;;;;;;;2.00;1.20;;;25.60;1.00;;;;;;5098791;28;20433;-54
2021/08/09 08:56:23;;;;;;;3.90;1.57;;;25.40;1.00;;;;;;5086092;28;20566;-55
2021/08/09 08:58:48;;;;;;;1.80;1.27;;;24.90;1.00;;;;;;5087696;28;20198;-53
2021/08/09 09:01:34;;;;;;;1.60;1.43;;;24.70;1.00;;;;;;5088520;28;20190;-54
2021/08/09 09:04:17;;;;;;;3.80;1.20;;;25.00;1.00;;;;;;5107595;28;20174;-55
2021/08/09 09:06:43;;;;;;;3.13;1.37;;;25.30;1.00;;;;;;5107615;28;20792;-55
2021/08/09 09:09:22;;;;;;;4.10;1.40;;;25.50;1.00;;;;;;5107723;28;20534;-54
2021/08/09 09:11:49;;;;;;;2.37;1.37;;;25.60;1.00;;;;;;5108073;28;20432;-53
2021/08/09 09:14:22;;;;;;;1.50;1.20;;;25.80;1.00;;;;;;5095766;28;20444;-56
2021/08/09 09:16:50;;;;;;;1.87;1.20;;;26.00;1.00;;;;;;5082350;28;20940;-54
2021/08/09 09:19:41;;;;;;;1.57;0.90;;;25.90;1.00;;;;;;5073750;28;20419;-53
2021/08/09 09:22:20;;;;;;;2.00;1.40;;;25.80;1.00;;;;;;5076473;28;20444;-54
2021/08/09 09:24:49;;;;;;;1.30;0.90;;;26.10;1.00;;;;;;5073286;28;20437;-53
2021/08/09 09:27:29;;;;;;;1.70;1.20;;;26.30;1.00;;;;;;5072213;28;20524;-53
2021/08/09 09:29:56;;;;;;;3.33;1.30;;;26.50;1.00;;;;;;5086974;28;20407;-53
2021/08/09 09:32:23;;;;;;;2.53;1.20;;;26.10;1.00;;;;;;5093906;28;20399;-55
2021/08/09 09:34:48;;;;;;;1.30;1.00;;;25.80;1.00;;;;;;5079640;28;20431;-54
2021/08/09 09:37:33;;;;;;;1.60;1.20;;;25.80;1.00;;;;;;5073689;28;20433;-53
2021/08/09 09:40:08;;;;;;;1.80;1.13;;;25.50;1.00;;;;;;5078491;28;20179;-55
2021/08/09 09:42:35;;;;;;;3.83;1.20;;;25.50;1.00;;;;;;5079191;28;20487;-55
2021/08/09 09:45:20;;;;;;;2.07;1.47;;;25.40;1.00;;;;;;5093291;28;20546;-54
2021/08/09 09:48:00;;;;;;;2.17;1.37;;;25.50;1.00;;;;;;5093230;28;20432;-55
2021/08/09 09:50:25;;;;;;;1.47;1.00;;;25.40;1.00;;;;;;5093118;28;20939;-54
2021/08/09 09:52:51;;;;;;;1.80;1.30;;;25.40;1.00;;;;;;5081219;28;20396;-53
2021/08/09 09:55:17;;;;;;;2.20;1.30;;;25.50;1.00;;;;;;5073022;28;20637;-54
2021/08/09 09:57:44;;;;;;;1.27;1.00;;;25.70;1.00;;;;;;5076468;28;20187;-56
2021/08/09 10:00:13;;;;;;;1.70;1.13;;;26.00;1.00;;;;;;5093507;28;20410;-53
2021/08/09 10:02:44;;;;;;;3.03;1.70;;;26.20;1.00;;;;;;5093075;28;20775;-54
2021/08/09 10:05:10;;;;;;;2.57;1.20;;;26.40;1.00;;;;;;5087532;28;20457;-54
2021/08/09 10:07:37;;;;;;;1.50;1.20;;;26.60;1.00;;;;;;5075479;28;20412;-56
2021/08/09 10:10:05;;;;;;;2.00;1.30;;;26.50;1.00;;;;;;5072615;28;20413;-54
2021/08/09 10:12:32;;;;;;;2.53;1.13;;;26.30;1.00;;;;;;5071518;28;21083;-54
2021/08/09 10:14:59;;;;;;;4.90;1.57;;;26.30;1.00;;;;;;5072548;28;20446;-54
2021/08/09 10:17:27;;;;;;;1.93;1.20;;;26.30;1.00;;;;;;5072517;28;20436;-55
2021/08/09 10:19:55;;;;;;;3.63;1.50;;;26.50;1.00;;;;;;5072511;28;20799;-54
2021/08/09 10:22:23;;;;;;;2.20;1.20;;;26.40;1.00;;;;;;5072609;28;20804;-55
2021/08/09 10:24:51;;;;;;;2.90;1.67;;;26.00;1.00;;;;;;5070822;28;20420;-55
2021/08/09 10:27:37;;;;;;;1.23;1.10;;;25.80;1.00;;;;;;5072540;28;20412;-54
2021/08/09 10:30:04;;;;;;;1.33;1.10;;;25.60;1.00;;;;;;5071222;28;20495;-55
2021/08/09 10:32:50;;;;;;;1.87;1.10;;;25.60;1.00;;;;;;5072354;28;20780;-54
2021/08/09 10:35:40;;;;;;;2.00;1.40;;;25.60;1.00;;;;;;5087298;28;20419;-54
2021/08/09 10:38:19;;;;;;;1.40;1.00;;;26.00;1.00;;;;;;5078492;28;20416;-56
2021/08/09 10:40:47;;;;;;;6.10;1.20;;;26.20;1.00;;;;;;5072069;28;20408;-56
2021/08/09 10:43:13;;;;;;;1.93;1.60;;;26.30;1.00;;;;;;5071969;28;20440;-54
2021/08/09 10:45:48;;;;;;;1.57;1.30;;;26.40;1.00;;;;;;5071811;28;20450;-53
2021/08/09 10:48:14;;;;;;;1.90;1.33;;;26.40;1.00;;;;;;5071710;28;20897;-53
2021/08/09 10:50:40;;;;;;;1.17;1.00;;;26.30;1.00;;;;;;5071962;28;20770;-56
2021/08/09 10:53:30;;;;;;;2.73;1.23;;;26.30;1.00;;;;;;5070346;28;20470;-55
2021/08/09 10:55:56;;;;;;;2.53;1.20;;;26.20;1.00;;;;;;5071715;28;20442;-53
2021/08/09 10:58:45;;;;;;;1.83;1.50;;;26.40;1.00;;;;;;5071735;28;20487;-55
2021/08/09 11:01:11;;;;;;;2.93;1.57;;;26.70;1.00;;;;;;5072092;28;20774;-53
2021/08/09 11:04:02;;;;;;;3.30;1.37;;;26.90;1.00;;;;;;5071800;28;20958;-55
2021/08/09 11:06:38;;;;;;;2.10;1.23;;;27.00;1.00;;;;;;5076160;28;20559;-54
2021/08/09 11:09:31;;;;;;;1.80;1.13;;;27.10;1.00;;;;;;5071678;28;20537;-55
2021/08/09 11:12:33;;;;;;;2.33;1.40;;;26.70;1.00;;;;;;5071484;28;20812;-53
2021/08/09 11:15:11;;;;;;;1.40;1.20;;;26.70;1.00;;;;;;5067533;28;20502;-55
2021/08/09 11:17:37;;;;;;;2.53;1.40;;;26.80;1.00;;;;;;5091217;28;20933;-56
2021/08/09 11:20:12;;;;;;;1.73;1.27;;;26.40;1.00;;;;;;5091631;28;20440;-54
2021/08/09 11:22:39;;;;;;;1.80;1.47;;;26.40;1.00;;;;;;5091805;28;20186;-54
2021/08/09 11:25:23;;;;;;;2.70;1.17;;;26.40;1.00;;;;;;5091337;28;20460;-56
2021/08/09 11:28:10;;;;;;;2.20;1.33;;;26.20;1.00;;;;;;5091609;28;20395;-53
2021/08/09 11:30:41;;;;;;;1.70;1.37;;;26.10;1.00;;;;;;5091549;28;20436;-53
2021/08/09 11:33:21;;;;;;;2.33;1.07;;;26.40;1.00;;;;;;5088954;28;20766;-54
2021/08/09 11:35:48;;;;;;;1.53;1.30;;;26.50;1.00;;;;;;5087465;28;20395;-54
2021/08/09 11:38:14;;;;;;;2.50;1.30;;;26.80;1.00;;;;;;5089630;28;20773;-53
2021/08/09 11:40:45;;;;;;;2.00;1.47;;;26.70;1.00;;;;;;5071028;28;20408;-55
2021/08/09 11:43:13;;;;;;;3.37;1.37;;;26.90;1.00;;;;;;5070877;28;20419;-53
2021/08/09 11:45:39;;;;;;;3.13;1.47;;;26.90;1.00;;;;;;5070810;28;21061;-54
2021/08/09 11:48:06;;;;;;;1.77;1.47;;;26.90;1.00;;;;;;5070927;28;20499;-54
2021/08/09 11:50:39;;;;;;;3.57;1.73;;;26.60;1.00;;;;;;5091065;28;20190;-54
2021/08/09 11:53:06;;;;;;;2.10;1.53;;;26.40;1.00;;;;;;5091398;28;20429;-54
2021/08/09 11:55:33;;;;;;;2.10;1.37;;;26.30;1.00;;;;;;5091171;28;20429;-55
2021/08/09 11:57:59;;;;;;;2.30;2.10;;;26.00;1.00;;;;;;5091422;28;20527;-54
2021/08/09 12:00:36;;;;;;;4.30;1.90;;;26.30;1.00;;;;;;5090814;28;20531;-54
2021/08/09 12:03:16;;;;;;;4.20;1.60;;;26.60;1.00;;;;;;5077603;28;20191;-54
2021/08/09 12:05:43;;;;;;;1.50;1.40;;;26.70;1.00;;;;;;5088572;28;20455;-54
2021/08/09 12:08:09;;;;;;;1.70;1.10;;;26.60;1.00;;;;;;5090943;28;20511;-54
2021/08/09 12:10:36;;;;;;;2.40;1.10;;;26.90;1.00;;;;;;5091037;28;20512;-55
2021/08/09 12:13:02;;;;;;;2.03;1.27;;;27.10;1.00;;;;;;5091093;28;20770;-55
2021/08/09 12:15:28;;;;;;;1.93;1.17;;;27.10;1.00;;;;;;5082342;28;20480;-54
2021/08/09 12:18:08;;;;;;;4.57;1.30;;;27.30;1.00;;;;;;5070491;28;20429;-54
2021/08/09 12:20:35;;;;;;;3.03;1.60;;;27.50;1.00;;;;;;5070639;28;20510;-54
2021/08/09 12:23:01;;;;;;;3.50;1.20;;;27.90;1.00;;;;;;5070649;28;20408;-53
2021/08/09 12:25:37;;;;;;;1.20;1.10;;;28.10;1.00;;;;;;5070544;28;20529;-55
2021/08/09 12:28:05;;;;;;;2.33;1.40;;;28.10;1.00;;;;;;5069617;28;20506;-54
2021/08/09 12:30:51;;;;;;;1.67;1.00;;;28.00;1.00;;;;;;5070650;28;20483;-55
2021/08/09 12:33:17;;;;;;;2.80;1.50;;;27.80;1.00;;;;;;5072018;28;20438;-55
2021/08/09 12:35:43;;;;;;;1.40;1.20;;;27.80;1.00;;;;;;5070437;28;20421;-53
2021/08/09 12:38:11;;;;;;;1.90;1.20;;;27.50;1.00;;;;;;5070827;28;20424;-54
2021/08/09 12:40:45;;;;;;;2.23;1.20;;;27.10;1.00;;;;;;5070607;28;20176;-54
2021/08/09 12:43:14;;;;;;;2.33;0.83;;;27.30;1.00;;;;;;5071036;28;20433;-54
2021/08/09 12:45:41;;;;;;;2.43;1.40;;;26.60;1.00;;;;;;5069123;28;20785;-54
2021/08/09 12:48:11;;;;;;;1.30;1.20;;;26.70;1.00;;;;;;5087483;28;21266;-55
2021/08/09 12:50:38;;;;;;;1.10;1.00;;;26.70;1.00;;;;;;5076291;28;20432;-55
2021/08/09 12:53:04;;;;;;;2.20;1.20;;;26.60;1.00;;;;;;5076346;28;20396;-54
2021/08/09 12:55:30;;;;;;;2.10;1.30;;;26.40;1.00;;;;;;5094499;28;20455;-55
2021/08/09 12:57:58;;;;;;;1.60;1.17;;;26.10;1.00;;;;;;5094315;28;20257;-54
2021/08/09 13:00:24;;;;;;;1.37;1.07;;;26.20;1.00;;;;;;5094437;28;20436;-54
2021/08/09 13:02:50;;;;;;;1.70;0.90;;;26.30;1.00;;;;;;5079575;28;20408;-55
2021/08/09 13:05:16;;;;;;;3.63;1.33;;;26.40;1.00;;;;;;5073928;28;20766;-53
2021/08/09 13:07:42;;;;;;;3.00;1.20;;;26.40;1.00;;;;;;5073816;28;20408;-54
2021/08/09 13:10:08;;;;;;;1.10;1.00;;;26.40;1.00;;;;;;5073895;28;20183;-53
2021/08/09 13:12:34;;;;;;;1.63;0.90;;;26.30;1.00;;;;;;5073926;28;20180;-54
2021/08/09 13:15:00;;;;;;;2.37;0.83;;;26.30;1.00;;;;;;5073568;28;20885;-53
2021/08/09 13:17:25;;;;;;;1.37;1.10;;;26.50;1.00;;;;;;5073460;28;20472;-54
2021/08/09 13:19:53;;;;;;;1.27;0.97;;;26.60;1.00;;;;;;5073781;28;20659;-55
2021/08/09 13:22:19;;;;;;;1.10;1.00;;;26.70;1.00;;;;;;5073667;28;20266;-53
2021/08/09 13:24:44;;;;;;;2.10;1.40;;;26.90;1.00;;;;;;5073588;28;20561;-54
2021/08/09 13:27:10;;;;;;;1.57;1.13;;;27.10;1.00;;;;;;5073727;28;20584;-54